Date,TemperatureHighF,TemperatureAvgF,TemperatureLowF,DewpointHighF,DewpointAvgF,DewpointLowF,HumidityHigh,HumidityAvg,HumidityLow,PressureMaxIn,PressureMinIn,WindSpeedMaxMPH,WindSpeedAvgMPH,GustSpeedMaxMPH,PrecipitationSumIn
2013-5-1,56,40,33,41,37,33,100,89,54,30.41,29.91,11,4,12,0.32
2013-5-2,46,39,34,33,31,28,94,73,54,30.48,30.36,10,4,12,0.00
2013-5-3,37,34,31,34,30,26,98,89,68,30.37,30.11,6,3,8,0.26
2013-5-4,50,39,32,44,38,32,100,94,80,30.13,30.07,6,3,6,0.15
2013-5-5,67,49,37,51,43,35,100,81,56,30.13,30.03,7,2,8,0.00
2013-5-6,78,59,42,52,47,42,100,69,37,30.07,29.97,4,1,6,0.00
2013-5-7,79,65,48,54,48,42,97,60,28,30.02,29.91,8,2,8,0.00
2013-5-8,83,64,53,59,53,49,100,73,34,29.97,29.91,5,2,8,0.21
2013-5-9,57,52,42,57,49,33,100,91,65,30.06,29.91,6,3,8,0.06
2013-5-10,67,51,33,43,31,24,88,52,20,30.07,29.83,5,2,7,0.01
2013-5-11,56,46,39,43,31,22,78,56,33,30.12,29.82,16,8,21,0.00
2013-5-12,58,45,32,27,24,19,72,46,25,30.17,30.04,11,4,12,0.00
2013-5-13,69,53,32,50,36,24,87,55,28,30.07,29.61,11,4,14,0.01
2013-5-14,96,72,48,60,50,33,94,52,17,29.68,29.42,16,4,21,0.00
2013-5-15,79,67,51,52,49,45,83,55,34,29.88,29.63,10,3,14,0.00
2013-5-16,85,70,50,55,47,33,92,49,25,29.88,29.79,5,1,6,0.00
2013-5-17,66,58,52,57,52,36,100,84,32,29.96,29.85,5,2,7,0.22
2013-5-18,79,64,53,68,60,53,100,90,66,29.95,29.76,7,2,10,0.66
2013-5-19,81,68,62,69,65,62,100,90,65,29.77,29.54,8,2,9,0.91
2013-5-20,70,65,60,65,62,59,100,90,68,29.55,29.48,5,2,9,0.47
2013-5-21,60,55,47,60,55,47,100,100,97,29.68,29.50,4,1,4,0.09
2013-5-22,53,49,45,52,48,45,100,98,87,29.94,29.66,4,2,6,0.04
2013-5-23,63,53,43,47,39,33,96,63,35,30.30,29.95,6,2,6,0.00
2013-5-24,68,54,37,54,41,33,99,64,37,30.34,30.15,6,2,9,0.14
2013-5-25,63,57,51,54,50,46,100,79,56,30.22,30.17,10,3,11,0.07
2013-5-26,59,56,51,50,45,38,79,67,47,30.19,30.01,7,2,9,0.00
2013-5-27,60,57,55,56,52,48,99,84,72,30.01,29.80,7,2,7,0.00
2013-5-28,59,56,53,58,55,52,100,98,96,29.80,29.68,3,1,4,0.01
2013-5-29,74,65,56,71,63,56,100,92,80,29.79,29.61,5,2,7,0.57
2013-5-30,76,68,63,68,65,63,100,89,68,29.65,29.49,8,3,9,0.15
2013-5-31,76,67,60,64,61,55,100,82,51,29.53,29.46,7,3,11,0.15